sensor_id;sensor_type;location;lat;lon;timestamp;pressure;altitude;pressure_sealevel;temperature;humidity
60240;BME280;46102;39.012;-7.064;2022-12-07T00:00:49;98446.22;;;10.96;100.00
60240;BME280;46102;39.012;-7.064;2022-12-07T00:02:50;98446.22;;;10.96;100.00
60240;BME280;46102;39.012;-7.064;2022-12-07T00:04:50;98441.53;;;10.96;100.00
60240;BME280;46102;39.012;-7.064;2022-12-07T00:06:52;98446.41;;;10.99;100.00
60240;BME280;46102;39.012;-7.064;2022-12-07T00:08:53;98449.63;;;11.01;100.00
60240;BME280;46102;39.012;-7.064;2022-12-07T00:10:54;98444.63;;;11.03;100.00
60240;BME280;46102;39.012;-7.064;2022-12-07T00:12:55;98440.75;;;11.04;100.00
60240;BME280;46102;39.012;-7.064;2022-12-07T00:14:55;98435.25;;;11.04;100.00
60240;BME280;46102;39.012;-7.064;2022-12-07T00:16:56;98439.28;;;11.07;100.00
60240;BME280;46102;39.012;-7.064;2022-12-07T00:18:57;98439.44;;;11.11;100.00
60240;BME280;46102;39.012;-7.064;2022-12-07T00:21:06;98427.81;;;11.14;100.00
60240;BME280;46102;39.012;-7.064;2022-12-07T00:23:07;98433.31;;;11.14;100.00
60240;BME280;46102;39.012;-7.064;2022-12-07T00:25:08;98428.97;;;11.13;100.00
60240;BME280;46102;39.012;-7.064;2022-12-07T00:27:09;98428.47;;;11.11;100.00
60240;BME280;46102;39.012;-7.064;2022-12-07T00:29:16;98424.09;;;11.10;100.00
60240;BME280;46102;39.012;-7.064;2022-12-07T00:31:19;98420.41;;;11.06;100.00
60240;BME280;46102;39.012;-7.064;2022-12-07T00:33:20;98421.84;;;11.03;100.00
60240;BME280;46102;39.012;-7.064;2022-12-07T00:35:21;98419.75;;;11.00;100.00
60240;BME280;46102;39.012;-7.064;2022-12-07T00:37:21;98421.50;;;10.96;100.00
60240;BME280;46102;39.012;-7.064;2022-12-07T00:39:22;98412.78;;;10.94;100.00
60240;BME280;46102;39.012;-7.064;2022-12-07T00:41:24;98411.19;;;10.93;100.00
60240;BME280;46102;39.012;-7.064;2022-12-07T00:43:25;98410.06;;;10.94;100.00
60240;BME280;46102;39.012;-7.064;2022-12-07T00:45:26;98408.44;;;10.93;100.00
60240;BME280;46102;39.012;-7.064;2022-12-07T00:47:27;98404.91;;;10.92;100.00
60240;BME280;46102;39.012;-7.064;2022-12-07T00:49:27;98408.13;;;10.94;100.00
60240;BME280;46102;39.012;-7.064;2022-12-07T00:51:28;98398.75;;;10.95;100.00
60240;BME280;46102;39.012;-7.064;2022-12-07T00:53:29;98401.50;;;10.95;100.00
60240;BME280;46102;39.012;-7.064;2022-12-07T00:55:34;98401.50;;;10.95;100.00
60240;BME280;46102;39.012;-7.064;2022-12-07T00:57:34;98398.44;;;10.97;100.00
60240;BME280;46102;39.012;-7.064;2022-12-07T00:59:35;98399.25;;;10.97;100.00
60240;BME280;46102;39.012;-7.064;2022-12-07T01:01:36;98387.94;;;10.99;100.00
60240;BME280;46102;39.012;-7.064;2022-12-07T01:03:37;98390.69;;;10.99;100.00
60240;BME280;46102;39.012;-7.064;2022-12-07T01:05:39;98387.59;;;11.00;100.00
60240;BME280;46102;39.012;-7.064;2022-12-07T01:07:39;98388.09;;;11.02;100.00
60240;BME280;46102;39.012;-7.064;2022-12-07T01:09:40;98380.66;;;11.03;100.00
60240;BME280;46102;39.012;-7.064;2022-12-07T01:11:41;98390.22;;;11.06;100.00
60240;BME280;46102;39.012;-7.064;2022-12-07T01:13:42;98383.56;;;11.07;100.00
60240;BME280;46102;39.012;-7.064;2022-12-07T01:15:44;98387.59;;;11.09;100.00
60240;BME280;46102;39.012;-7.064;2022-12-07T01:17:45;98386.50;;;11.10;100.00
60240;BME280;46102;39.012;-7.064;2022-12-07T01:19:45;98393.25;;;11.13;100.00
60240;BME280;46102;39.012;-7.064;2022-12-07T01:21:46;98380.03;;;11.06;100.00
60240;BME280;46102;39.012;-7.064;2022-12-07T01:23:47;98376.47;;;11.06;100.00
60240;BME280;46102;39.012;-7.064;2022-12-07T01:25:54;98376.47;;;11.06;100.00
60240;BME280;46102;39.012;-7.064;2022-12-07T01:27:55;98377.59;;;11.04;100.00
60240;BME280;46102;39.012;-7.064;2022-12-07T01:29:56;98374.84;;;11.04;100.00
60240;BME280;46102;39.012;-7.064;2022-12-07T01:31:56;98365.50;;;11.06;100.00
60240;BME280;46102;39.012;-7.064;2022-12-07T01:33:59;98372.28;;;11.08;100.00
60240;BME280;46102;39.012;-7.064;2022-12-07T01:36:18;98359.66;;;11.07;100.00
60240;BME280;46102;39.012;-7.064;2022-12-07T01:38:19;98369.84;;;11.07;100.00
60240;BME280;46102;39.012;-7.064;2022-12-07T01:40:20;98368.69;;;11.08;100.00
60240;BME280;46102;39.012;-7.064;2022-12-07T01:42:21;98375.81;;;11.09;100.00
60240;BME280;46102;39.012;-7.064;2022-12-07T01:44:27;98381.31;;;11.09;100.00
60240;BME280;46102;39.012;-7.064;2022-12-07T01:46:30;98376.78;;;11.13;100.00
60240;BME280;46102;39.012;-7.064;2022-12-07T01:48:38;98375.16;;;11.12;100.00
60240;BME280;46102;39.012;-7.064;2022-12-07T01:50:41;98379.69;;;11.08;100.00
60240;BME280;46102;39.012;-7.064;2022-12-07T01:52:45;98369.19;;;11.10;100.00
60240;BME280;46102;39.012;-7.064;2022-12-07T01:54:52;98369.53;;;11.08;100.00
60240;BME280;46102;39.012;-7.064;2022-12-07T01:56:56;98369.53;;;11.08;100.00
60240;BME280;46102;39.012;-7.064;2022-12-07T01:58:58;98368.88;;;11.11;100.00
60240;BME280;46102;39.012;-7.064;2022-12-07T02:01:00;98369.66;;;11.12;100.00
60240;BME280;46102;39.012;-7.064;2022-12-07T02:03:05;98364.19;;;11.12;100.00
60240;BME280;46102;39.012;-7.064;2022-12-07T02:05:07;98360.47;;;11.16;100.00
60240;BME280;46102;39.012;-7.064;2022-12-07T02:07:08;98350.94;;;11.14;100.00
60240;BME280;46102;39.012;-7.064;2022-12-07T02:09:09;98361.44;;;11.12;100.00
60240;BME280;46102;39.012;-7.064;2022-12-07T02:11:10;98357.56;;;11.13;100.00
60240;BME280;46102;39.012;-7.064;2022-12-07T02:13:14;98357.22;;;11.14;100.00
60240;BME280;46102;39.012;-7.064;2022-12-07T02:15:18;98359.19;;;11.14;100.00
60240;BME280;46102;39.012;-7.064;2022-12-07T02:24:24;98360.81;;;11.15;100.00
60240;BME280;46102;39.012;-7.064;2022-12-07T02:31:17;98363.56;;;11.06;100.00
60240;BME280;46102;39.012;-7.064;2022-12-07T02:33:25;98365.16;;;11.07;100.00
60240;BME280;46102;39.012;-7.064;2022-12-07T02:35:43;98357.72;;;11.08;100.00
60240;BME280;46102;39.012;-7.064;2022-12-07T02:40:04;98357.56;;;11.13;100.00
60240;BME280;46102;39.012;-7.064;2022-12-07T02:42:19;98345.44;;;11.14;100.00
60240;BME280;46102;39.012;-7.064;2022-12-07T02:44:25;98351.75;;;11.14;100.00
60240;BME280;46102;39.012;-7.064;2022-12-07T02:46:41;98340.94;;;11.18;100.00
60240;BME280;46102;39.012;-7.064;2022-12-07T02:48:43;98356.72;;;11.21;100.00
60240;BME280;46102;39.012;-7.064;2022-12-07T02:50:48;98348.19;;;11.22;100.00
60240;BME280;46102;39.012;-7.064;2022-12-07T02:52:49;98350.63;;;11.24;100.00
60240;BME280;46102;39.012;-7.064;2022-12-07T02:54:50;98352.22;;;11.25;100.00
60240;BME280;46102;39.012;-7.064;2022-12-07T02:57:02;98342.03;;;11.25;100.00
60240;BME280;46102;39.012;-7.064;2022-12-07T03:03:37;98338.00;;;11.23;100.00
60240;BME280;46102;39.012;-7.064;2022-12-07T03:14:59;98334.63;;;11.17;100.00
60240;BME280;46102;39.012;-7.064;2022-12-07T03:17:14;98336.22;;;11.18;100.00
60240;BME280;46102;39.012;-7.064;2022-12-07T03:19:19;98336.91;;;11.15;100.00
60240;BME280;46102;39.012;-7.064;2022-12-07T03:21:23;98334.94;;;11.16;100.00
60240;BME280;46102;39.012;-7.064;2022-12-07T03:23:25;98327.38;;;11.13;100.00
60240;BME280;46102;39.012;-7.064;2022-12-07T03:25:27;98323.00;;;11.12;100.00
60240;BME280;46102;39.012;-7.064;2022-12-07T03:27:32;98319.47;;;11.11;100.00
60240;BME280;46102;39.012;-7.064;2022-12-07T03:29:37;98322.53;;;11.10;100.00
60240;BME280;46102;39.012;-7.064;2022-12-07T03:31:43;98316.41;;;11.04;100.00
60240;BME280;46102;39.012;-7.064;2022-12-07T03:33:58;98309.28;;;11.03;100.00
60240;BME280;46102;39.012;-7.064;2022-12-07T03:36:04;98306.41;;;10.99;100.00
60240;BME280;46102;39.012;-7.064;2022-12-07T03:38:20;98314.16;;;10.97;100.00
60240;BME280;46102;39.012;-7.064;2022-12-07T03:40:43;98320.47;;;10.89;100.00
60240;BME280;46102;39.012;-7.064;2022-12-07T03:42:45;98304.97;;;10.84;100.00
60240;BME280;46102;39.012;-7.064;2022-12-07T03:44:47;98306.44;;;10.82;100.00
60240;BME280;46102;39.012;-7.064;2022-12-07T03:46:59;98299.97;;;10.78;100.00
60240;BME280;46102;39.012;-7.064;2022-12-07T03:55:54;98300.44;;;10.71;100.00
60240;BME280;46102;39.012;-7.064;2022-12-07T03:58:01;98294.81;;;10.68;100.00
60240;BME280;46102;39.012;-7.064;2022-12-07T04:00:05;98291.44;;;10.62;100.00
60240;BME280;46102;39.012;-7.064;2022-12-07T04:02:13;98294.50;;;10.60;100.00
60240;BME280;46102;39.012;-7.064;2022-12-07T04:04:15;98294.50;;;10.60;100.00
60240;BME280;46102;39.012;-7.064;2022-12-07T04:06:16;98290.13;;;10.59;100.00
60240;BME280;46102;39.012;-7.064;2022-12-07T04:08:17;98298.69;;;10.58;100.00
60240;BME280;46102;39.012;-7.064;2022-12-07T04:10:18;98299.03;;;10.56;100.00
60240;BME280;46102;39.012;-7.064;2022-12-07T04:12:19;98296.28;;;10.56;100.00
60240;BME280;46102;39.012;-7.064;2022-12-07T04:14:20;98302.41;;;10.53;100.00
60240;BME280;46102;39.012;-7.064;2022-12-07T04:16:21;98302.75;;;10.52;100.00
60240;BME280;46102;39.012;-7.064;2022-12-07T04:18:21;98292.25;;;10.45;100.00
60240;BME280;46102;39.012;-7.064;2022-12-07T04:20:22;98277.56;;;10.41;100.00
60240;BME280;46102;39.012;-7.064;2022-12-07T04:22:23;98279.34;;;10.37;100.00
60240;BME280;46102;39.012;-7.064;2022-12-07T04:24:24;98273.19;;;10.40;100.00
60240;BME280;46102;39.012;-7.064;2022-12-07T04:26:25;98275.78;;;10.36;100.00
60240;BME280;46102;39.012;-7.064;2022-12-07T04:28:25;98273.19;;;10.40;100.00
60240;BME280;46102;39.012;-7.064;2022-12-07T04:30:26;98261.44;;;10.39;100.00
60240;BME280;46102;39.012;-7.064;2022-12-07T04:32:27;98261.13;;;10.41;100.00
60240;BME280;46102;39.012;-7.064;2022-12-07T04:34:28;98257.22;;;10.42;100.00
60240;BME280;46102;39.012;-7.064;2022-12-07T04:36:28;98261.91;;;10.41;100.00
60240;BME280;46102;39.012;-7.064;2022-12-07T04:38:29;98261.91;;;10.41;100.00
60240;BME280;46102;39.012;-7.064;2022-12-07T04:40:30;98252.56;;;10.43;100.00
60240;BME280;46102;39.012;-7.064;2022-12-07T04:42:30;98259.34;;;10.45;100.00
60240;BME280;46102;39.012;-7.064;2022-12-07T04:44:31;98266.91;;;10.48;100.00
60240;BME280;46102;39.012;-7.064;2022-12-07T04:46:32;98265.47;;;10.51;100.00
60240;BME280;46102;39.012;-7.064;2022-12-07T04:48:33;98277.41;;;10.55;100.00
60240;BME280;46102;39.012;-7.064;2022-12-07T04:50:35;98272.09;;;10.58;100.00
60240;BME280;46102;39.012;-7.064;2022-12-07T04:52:35;98273.69;;;10.59;100.00
60240;BME280;46102;39.012;-7.064;2022-12-07T04:54:36;98271.13;;;10.63;100.00
60240;BME280;46102;39.012;-7.064;2022-12-07T04:56:37;98275.94;;;10.66;100.00
60240;BME280;46102;39.012;-7.064;2022-12-07T04:58:38;98282.41;;;10.70;100.00
60240;BME280;46102;39.012;-7.064;2022-12-07T05:00:39;98277.41;;;10.72;100.00
60240;BME280;46102;39.012;-7.064;2022-12-07T05:02:40;98274.78;;;10.76;100.00
60240;BME280;46102;39.012;-7.064;2022-12-07T05:04:41;98276.91;;;10.79;100.00
60240;BME280;46102;39.012;-7.064;2022-12-07T05:06:42;98273.50;;;10.82;100.00
60240;BME280;46102;39.012;-7.064;2022-12-07T05:08:42;98270.44;;;10.83;100.00
60240;BME280;46102;39.012;-7.064;2022-12-07T05:10:43;98278.31;;;10.85;100.00
60240;BME280;46102;39.012;-7.064;2022-12-07T05:12:44;98281.06;;;10.85;100.00
60240;BME280;46102;39.012;-7.064;2022-12-07T05:14:46;98281.56;;;10.87;100.00
60240;BME280;46102;39.012;-7.064;2022-12-07T05:16:49;98272.84;;;10.85;100.00
60240;BME280;46102;39.012;-7.064;2022-12-07T05:18:50;98280.91;;;10.90;100.00
60240;BME280;46102;39.012;-7.064;2022-12-07T05:20:51;98279.47;;;10.84;100.00
60240;BME280;46102;39.012;-7.064;2022-12-07T05:22:52;98275.13;;;10.83;100.00
60240;BME280;46102;39.012;-7.064;2022-12-07T05:24:53;98269.94;;;10.81;100.00
60240;BME280;46102;39.012;-7.064;2022-12-07T05:26:53;98252.34;;;10.82;100.00
60240;BME280;46102;39.012;-7.064;2022-12-07T05:28:55;98263.31;;;10.82;100.00
60240;BME280;46102;39.012;-7.064;2022-12-07T05:30:56;98266.88;;;10.83;100.00
60240;BME280;46102;39.012;-7.064;2022-12-07T05:32:57;98272.03;;;10.84;100.00
60240;BME280;46102;39.012;-7.064;2022-12-07T05:34:58;98279.78;;;10.91;100.00
60240;BME280;46102;39.012;-7.064;2022-12-07T05:36:59;98288.66;;;10.88;100.00
60240;BME280;46102;39.012;-7.064;2022-12-07T05:39:00;98287.03;;;10.87;100.00
60240;BME280;46102;39.012;-7.064;2022-12-07T05:41:05;98272.50;;;10.87;100.00
60240;BME280;46102;39.012;-7.064;2022-12-07T05:43:06;98271.06;;;10.89;100.00
60240;BME280;46102;39.012;-7.064;2022-12-07T05:45:08;98269.47;;;10.88;100.00
60240;BME280;46102;39.012;-7.064;2022-12-07T05:47:11;98266.38;;;10.90;100.00
60240;BME280;46102;39.012;-7.064;2022-12-07T05:49:12;98263.63;;;10.90;100.00
60240;BME280;46102;39.012;-7.064;2022-12-07T05:51:12;98259.28;;;10.89;100.00
60240;BME280;46102;39.012;-7.064;2022-12-07T05:53:13;98260.44;;;10.88;100.00
60240;BME280;46102;39.012;-7.064;2022-12-07T05:55:14;98253.47;;;10.90;100.00
60240;BME280;46102;39.012;-7.064;2022-12-07T05:57:15;98258.97;;;10.90;100.00
60240;BME280;46102;39.012;-7.064;2022-12-07T05:59:16;98264.75;;;10.89;100.00
60240;BME280;46102;39.012;-7.064;2022-12-07T06:01:22;98259.09;;;10.85;100.00
60240;BME280;46102;39.012;-7.064;2022-12-07T06:03:23;98254.09;;;10.87;100.00
60240;BME280;46102;39.012;-7.064;2022-12-07T06:05:24;98244.94;;;10.83;100.00
60240;BME280;46102;39.012;-7.064;2022-12-07T06:07:24;98243.00;;;10.83;100.00
60240;BME280;46102;39.012;-7.064;2022-12-07T06:09:26;98247.69;;;10.83;100.00
60240;BME280;46102;39.012;-7.064;2022-12-07T06:11:27;98229.59;;;10.82;100.00
60240;BME280;46102;39.012;-7.064;2022-12-07T06:13:46;98233.31;;;10.77;100.00
60240;BME280;46102;39.012;-7.064;2022-12-07T06:15:47;98232.50;;;10.77;100.00
60240;BME280;46102;39.012;-7.064;2022-12-07T06:17:47;98228.81;;;10.73;100.00
60240;BME280;46102;39.012;-7.064;2022-12-07T06:19:48;98226.88;;;10.73;100.00
60240;BME280;46102;39.012;-7.064;2022-12-07T06:21:49;98223.97;;;10.70;100.00
60240;BME280;46102;39.012;-7.064;2022-12-07T06:23:50;98231.38;;;10.69;100.00
60240;BME280;46102;39.012;-7.064;2022-12-07T06:25:50;98232.22;;;10.70;100.00
60240;BME280;46102;39.012;-7.064;2022-12-07T06:27:51;98233.31;;;10.69;100.00
60240;BME280;46102;39.012;-7.064;2022-12-07T06:29:52;98240.44;;;10.70;100.00
60240;BME280;46102;39.012;-7.064;2022-12-07T06:31:52;98233.50;;;10.63;100.00
60240;BME280;46102;39.012;-7.064;2022-12-07T06:34:00;98236.25;;;10.63;100.00
60240;BME280;46102;39.012;-7.064;2022-12-07T06:36:01;98235.75;;;10.61;100.00
60240;BME280;46102;39.012;-7.064;2022-12-07T06:38:02;98239.66;;;10.60;100.00
60240;BME280;46102;39.012;-7.064;2022-12-07T06:40:04;98242.72;;;10.59;100.00
60240;BME280;46102;39.012;-7.064;2022-12-07T06:42:05;98242.72;;;10.59;100.00
60240;BME280;46102;39.012;-7.064;2022-12-07T06:44:06;98241.91;;;10.58;100.00
60240;BME280;46102;39.012;-7.064;2022-12-07T06:46:07;98239.47;;;10.57;100.00
60240;BME280;46102;39.012;-7.064;2022-12-07T06:48:07;98241.44;;;10.56;100.00
60240;BME280;46102;39.012;-7.064;2022-12-07T06:50:09;98240.59;;;10.56;100.00
60240;BME280;46102;39.012;-7.064;2022-12-07T06:52:09;98239.31;;;10.53;100.00
60240;BME280;46102;39.012;-7.064;2022-12-07T06:54:12;98239.31;;;10.53;100.00
60240;BME280;46102;39.012;-7.064;2022-12-07T06:56:13;98247.22;;;10.55;100.00
60240;BME280;46102;39.012;-7.064;2022-12-07T06:58:14;98245.63;;;10.54;100.00
60240;BME280;46102;39.012;-7.064;2022-12-07T07:00:15;98243.69;;;10.54;100.00
60240;BME280;46102;39.012;-7.064;2022-12-07T07:02:16;98246.44;;;10.54;100.00
60240;BME280;46102;39.012;-7.064;2022-12-07T07:04:18;98248.38;;;10.54;100.00
60240;BME280;46102;39.012;-7.064;2022-12-07T07:06:19;98251.56;;;10.56;100.00
60240;BME280;46102;39.012;-7.064;2022-12-07T07:08:19;98242.22;;;10.57;100.00
60240;BME280;46102;39.012;-7.064;2022-12-07T07:10:20;98250.44;;;10.57;100.00
60240;BME280;46102;39.012;-7.064;2022-12-07T07:12:21;98244.16;;;10.56;100.00
60240;BME280;46102;39.012;-7.064;2022-12-07T07:14:22;98246.09;;;10.56;100.00
60240;BME280;46102;39.012;-7.064;2022-12-07T07:16:23;98249.66;;;10.56;100.00
60240;BME280;46102;39.012;-7.064;2022-12-07T07:18:24;98246.56;;;10.58;100.00
60240;BME280;46102;39.012;-7.064;2022-12-07T07:20:25;98249.66;;;10.56;100.00
60240;BME280;46102;39.012;-7.064;2022-12-07T07:22:26;98237.53;;;10.57;100.00
60240;BME280;46102;39.012;-7.064;2022-12-07T07:24:27;98235.94;;;10.56;100.00
60240;BME280;46102;39.012;-7.064;2022-12-07T07:26:28;98229.63;;;10.56;100.00
60240;BME280;46102;39.012;-7.064;2022-12-07T07:28:28;98225.59;;;10.53;100.00
60240;BME280;46102;39.012;-7.064;2022-12-07T07:30:29;98231.09;;;10.53;100.00
60240;BME280;46102;39.012;-7.064;2022-12-07T07:32:30;98233.34;;;10.51;100.00
60240;BME280;46102;39.012;-7.064;2022-12-07T07:34:31;98223.34;;;10.47;100.00
60240;BME280;46102;39.012;-7.064;2022-12-07T07:36:32;98227.53;;;10.44;100.00
60240;BME280;46102;39.012;-7.064;2022-12-07T07:38:33;98227.41;;;10.40;100.00
60240;BME280;46102;39.012;-7.064;2022-12-07T07:40:34;98229.97;;;10.37;100.00
60240;BME280;46102;39.012;-7.064;2022-12-07T07:42:35;98229.81;;;10.33;100.00
60240;BME280;46102;39.012;-7.064;2022-12-07T07:44:36;98233.69;;;10.32;100.00
60240;BME280;46102;39.012;-7.064;2022-12-07T07:46:36;98229.34;;;10.31;100.00
60240;BME280;46102;39.012;-7.064;2022-12-07T07:48:37;98231.09;;;10.27;100.00
60240;BME280;46102;39.012;-7.064;2022-12-07T07:50:38;98230.78;;;10.29;100.00
60240;BME280;46102;39.012;-7.064;2022-12-07T07:52:38;98229.66;;;10.30;100.00
60240;BME280;46102;39.012;-7.064;2022-12-07T07:54:39;98231.75;;;10.33;100.00
60240;BME280;46102;39.012;-7.064;2022-12-07T07:56:40;98238.19;;;10.37;100.00
60240;BME280;46102;39.012;-7.064;2022-12-07T07:58:41;98239.81;;;10.38;100.00
60240;BME280;46102;39.012;-7.064;2022-12-07T08:00:41;98233.38;;;10.43;100.00
60240;BME280;46102;39.012;-7.064;2022-12-07T08:02:42;98230.16;;;10.49;100.00
60240;BME280;46102;39.012;-7.064;2022-12-07T08:04:44;98234.47;;;10.59;100.00
60240;BME280;46102;39.012;-7.064;2022-12-07T08:06:45;98229.47;;;10.70;100.00
60240;BME280;46102;39.012;-7.064;2022-12-07T08:08:46;98226.38;;;10.80;100.00
60240;BME280;46102;39.012;-7.064;2022-12-07T08:10:47;98223.91;;;10.96;99.26
60240;BME280;46102;39.012;-7.064;2022-12-07T08:12:47;98224.34;;;11.07;97.52
60240;BME280;46102;39.012;-7.064;2022-12-07T08:15:07;98227.19;;;11.28;96.29
60240;BME280;46102;39.012;-7.064;2022-12-07T08:17:08;98224.03;;;11.46;95.87
60240;BME280;46102;39.012;-7.064;2022-12-07T08:19:08;98232.31;;;11.67;94.56
60240;BME280;46102;39.012;-7.064;2022-12-07T08:21:13;98228.84;;;11.79;93.42
60240;BME280;46102;39.012;-7.064;2022-12-07T08:23:14;98237.88;;;11.88;93.04
60240;BME280;46102;39.012;-7.064;2022-12-07T08:25:15;98233.78;;;12.16;92.26
60240;BME280;46102;39.012;-7.064;2022-12-07T08:27:15;98240.25;;;12.41;89.44
60240;BME280;46102;39.012;-7.064;2022-12-07T08:29:16;98246.06;;;12.60;88.62
60240;BME280;46102;39.012;-7.064;2022-12-07T08:31:17;98245.03;;;12.65;86.20
60240;BME280;46102;39.012;-7.064;2022-12-07T08:33:19;98240.16;;;12.49;85.49
60240;BME280;46102;39.012;-7.064;2022-12-07T08:35:23;98244.81;;;12.37;85.02
60240;BME280;46102;39.012;-7.064;2022-12-07T08:37:23;98248.03;;;12.18;85.35
60240;BME280;46102;39.012;-7.064;2022-12-07T08:39:24;98243.47;;;12.01;85.89
60240;BME280;46102;39.012;-7.064;2022-12-07T08:41:25;98238.25;;;11.78;85.77
60240;BME280;46102;39.012;-7.064;2022-12-07T08:43:26;98237.50;;;11.69;86.82
60240;BME280;46102;39.012;-7.064;2022-12-07T08:45:27;98243.69;;;11.57;86.74
60240;BME280;46102;39.012;-7.064;2022-12-07T08:47:28;98251.97;;;11.49;87.57
60240;BME280;46102;39.012;-7.064;2022-12-07T08:49:36;98242.56;;;11.58;87.78
60240;BME280;46102;39.012;-7.064;2022-12-07T08:51:38;98245.91;;;11.64;88.01
60240;BME280;46102;39.012;-7.064;2022-12-07T08:53:40;98247.28;;;11.87;87.29
60240;BME280;46102;39.012;-7.064;2022-12-07T08:55:41;98248.63;;;12.23;86.47
60240;BME280;46102;39.012;-7.064;2022-12-07T08:57:42;98239.50;;;12.53;85.23
60240;BME280;46102;39.012;-7.064;2022-12-07T08:59:43;98230.63;;;12.68;84.02
60240;BME280;46102;39.012;-7.064;2022-12-07T09:01:43;98242.97;;;12.62;83.10
60240;BME280;46102;39.012;-7.064;2022-12-07T09:03:44;98241.16;;;12.45;82.96
60240;BME280;46102;39.012;-7.064;2022-12-07T09:05:45;98245.25;;;12.60;83.37
60240;BME280;46102;39.012;-7.064;2022-12-07T09:07:48;98233.19;;;12.85;82.31
60240;BME280;46102;39.012;-7.064;2022-12-07T09:09:51;98238.19;;;13.04;81.09
60240;BME280;46102;39.012;-7.064;2022-12-07T09:11:52;98247.47;;;13.12;79.80
60240;BME280;46102;39.012;-7.064;2022-12-07T09:13:53;98248.41;;;13.16;79.40
60240;BME280;46102;39.012;-7.064;2022-12-07T09:15:54;98244.16;;;13.19;79.49
60240;BME280;46102;39.012;-7.064;2022-12-07T09:17:55;98244.25;;;13.10;79.16
60240;BME280;46102;39.012;-7.064;2022-12-07T09:19:56;98237.25;;;13.00;79.46
60240;BME280;46102;39.012;-7.064;2022-12-07T09:21:56;98234.81;;;12.99;79.57
60240;BME280;46102;39.012;-7.064;2022-12-07T09:23:57;98242.66;;;12.76;79.86
60240;BME280;46102;39.012;-7.064;2022-12-07T09:26:02;98226.88;;;12.52;81.53
60240;BME280;46102;39.012;-7.064;2022-12-07T09:28:03;98234.03;;;12.32;83.01
60240;BME280;46102;39.012;-7.064;2022-12-07T09:30:05;98233.53;;;12.08;84.65
60240;BME280;46102;39.012;-7.064;2022-12-07T09:32:06;98238.16;;;11.96;85.52
60240;BME280;46102;39.012;-7.064;2022-12-07T09:34:06;98231.94;;;11.78;86.17
60240;BME280;46102;39.012;-7.064;2022-12-07T09:36:07;98233.31;;;11.63;87.30
60240;BME280;46102;39.012;-7.064;2022-12-07T09:38:10;98223.56;;;11.44;88.32
60240;BME280;46102;39.012;-7.064;2022-12-07T09:40:11;98225.69;;;11.30;89.02
60240;BME280;46102;39.012;-7.064;2022-12-07T09:42:29;98226.22;;;11.23;89.83
60240;BME280;46102;39.012;-7.064;2022-12-07T09:44:33;98232.25;;;11.17;90.50
60240;BME280;46102;39.012;-7.064;2022-12-07T09:46:40;98237.28;;;11.06;91.24
60240;BME280;46102;39.012;-7.064;2022-12-07T09:48:42;98234.41;;;10.94;92.01
60240;BME280;46102;39.012;-7.064;2022-12-07T09:50:45;98241.66;;;10.90;92.22
60240;BME280;46102;39.012;-7.064;2022-12-07T09:52:47;98245.25;;;10.90;92.81
60240;BME280;46102;39.012;-7.064;2022-12-07T09:54:50;98253.00;;;10.88;92.79
60240;BME280;46102;39.012;-7.064;2022-12-07T09:56:51;98254.09;;;10.87;92.49
60240;BME280;46102;39.012;-7.064;2022-12-07T09:58:58;98258.19;;;10.81;92.80
60240;BME280;46102;39.012;-7.064;2022-12-07T10:01:12;98253.31;;;10.78;93.19
60240;BME280;46102;39.012;-7.064;2022-12-07T10:03:13;98253.81;;;10.80;93.32
60240;BME280;46102;39.012;-7.064;2022-12-07T10:05:19;98263.66;;;10.81;93.41
60240;BME280;46102;39.012;-7.064;2022-12-07T10:07:21;98269.78;;;10.69;94.87
60240;BME280;46102;39.012;-7.064;2022-12-07T10:09:22;98267.53;;;10.62;96.23
60240;BME280;46102;39.012;-7.064;2022-12-07T10:11:23;98273.38;;;10.61;96.62
60240;BME280;46102;39.012;-7.064;2022-12-07T10:13:39;98280.31;;;10.58;97.66
60240;BME280;46102;39.012;-7.064;2022-12-07T10:15:53;98279.00;;;10.65;97.24
60240;BME280;46102;39.012;-7.064;2022-12-07T10:17:54;98273.84;;;10.54;97.55
60240;BME280;46102;39.012;-7.064;2022-12-07T10:22:16;98272.09;;;10.58;97.22
60240;BME280;46102;39.012;-7.064;2022-12-07T10:24:17;98271.59;;;10.56;97.22
60240;BME280;46102;39.012;-7.064;2022-12-07T10:26:35;98262.72;;;10.59;97.65
60240;BME280;46102;39.012;-7.064;2022-12-07T10:28:36;98256.06;;;10.69;97.45
60240;BME280;46102;39.012;-7.064;2022-12-07T10:30:53;98261.06;;;10.76;97.20
60240;BME280;46102;39.012;-7.064;2022-12-07T10:32:57;98250.06;;;10.84;97.19
60240;BME280;46102;39.012;-7.064;2022-12-07T10:37:19;98260.53;;;11.00;96.34
60240;BME280;46102;39.012;-7.064;2022-12-07T10:39:21;98252.47;;;11.03;95.74
60240;BME280;46102;39.012;-7.064;2022-12-07T10:41:22;98239.72;;;10.99;96.11
60240;BME280;46102;39.012;-7.064;2022-12-07T10:43:23;98246.97;;;11.03;96.69
60240;BME280;46102;39.012;-7.064;2022-12-07T10:45:24;98245.34;;;11.02;96.40
60240;BME280;46102;39.012;-7.064;2022-12-07T10:47:55;98242.78;;;11.06;96.25
60240;BME280;46102;39.012;-7.064;2022-12-07T11:04:33;98231.34;;;10.95;97.11
60240;BME280;46102;39.012;-7.064;2022-12-07T11:09:23;98226.50;;;10.92;96.95
60240;BME280;46102;39.012;-7.064;2022-12-07T11:11:34;98218.28;;;10.83;96.67
60240;BME280;46102;39.012;-7.064;2022-12-07T11:13:55;98217.50;;;10.83;97.32
60240;BME280;46102;39.012;-7.064;2022-12-07T11:16:02;98226.81;;;10.91;97.08
60240;BME280;46102;39.012;-7.064;2022-12-07T11:18:11;98211.03;;;10.88;96.40
60240;BME280;46102;39.012;-7.064;2022-12-07T11:22:40;98205.19;;;10.89;95.90
60240;BME280;46102;39.012;-7.064;2022-12-07T11:25:02;98202.94;;;10.91;97.10
60240;BME280;46102;39.012;-7.064;2022-12-07T11:36:33;98181.09;;;11.03;96.13
60240;BME280;46102;39.012;-7.064;2022-12-07T11:38:57;98174.41;;;11.22;95.82
60240;BME280;46102;39.012;-7.064;2022-12-07T11:41:05;98181.84;;;11.21;93.65
60240;BME280;46102;39.012;-7.064;2022-12-07T11:43:32;98185.56;;;11.17;93.70
60240;BME280;46102;39.012;-7.064;2022-12-07T11:45:37;98166.72;;;11.07;94.03